Time;durP1;ratioP1;P1;durP2;ratioP2;P2;SDS_P1;SDS_P2;PMS_P1;PMS_P2;Temp;Humidity;BMP_temperature;BMP_pressure;BME280_temperature;BME280_humidity;BME280_pressure;Samples;Min_cycle;Max_cycle;Signal;HPM_P1;HPM_P2
2022/09/08 00:02:01;;;;;;;1.60;1.50;;;16.60;99.90;;;;;;5024918;28;20191;-59
2022/09/08 00:04:27;;;;;;;5.00;1.73;;;16.60;99.90;;;;;;5021837;28;20187;-58
2022/09/08 00:06:53;;;;;;;2.20;1.93;;;16.60;99.90;;;;;;5025536;28;20656;-57
2022/09/08 00:09:19;;;;;;;2.40;1.70;;;16.60;99.90;;;;;;5026826;28;20172;-58
2022/09/08 00:11:45;;;;;;;2.87;1.57;;;16.60;99.90;;;;;;5025192;28;20430;-58
2022/09/08 00:14:11;;;;;;;3.30;1.90;;;16.60;99.90;;;;;;5023674;28;20582;-59
2022/09/08 00:16:40;;;;;;;1.77;1.60;;;16.60;99.90;;;;;;5026528;28;20452;-57
2022/09/08 00:19:05;;;;;;;1.63;1.53;;;16.60;99.90;;;;;;5027905;28;20176;-59
2022/09/08 00:21:31;;;;;;;2.53;1.77;;;16.60;99.90;;;;;;5029778;28;20568;-57
2022/09/08 00:23:57;;;;;;;1.90;1.80;;;16.60;99.90;;;;;;5024663;28;20191;-57
2022/09/08 00:26:23;;;;;;;2.60;1.90;;;16.60;99.90;;;;;;5026973;28;20191;-58
2022/09/08 00:28:49;;;;;;;3.00;1.80;;;16.60;99.90;;;;;;5027380;28;20184;-58
2022/09/08 00:31:15;;;;;;;8.43;2.50;;;16.60;99.90;;;;;;5028423;28;20472;-58
2022/09/08 00:33:42;;;;;;;2.87;1.80;;;16.60;99.90;;;;;;5023665;28;20430;-59
2022/09/08 00:36:14;;;;;;;6.17;2.47;;;16.60;99.90;;;;;;5022462;28;20191;-58
2022/09/08 00:38:40;;;;;;;2.50;2.30;;;16.60;99.90;;;;;;5027030;28;20986;-58
2022/09/08 00:41:10;;;;;;;2.40;2.20;;;16.50;99.90;;;;;;5028345;28;20484;-57
2022/09/08 00:43:46;;;;;;;2.40;2.10;;;16.50;99.90;;;;;;5023737;28;20446;-59
2022/09/08 00:46:18;;;;;;;6.73;2.37;;;16.50;99.90;;;;;;5026760;28;20515;-58
2022/09/08 00:49:18;;;;;;;3.03;2.10;;;16.50;99.90;;;;;;5027879;28;20446;-56
2022/09/08 00:51:47;;;;;;;3.63;2.13;;;16.50;99.90;;;;;;5029589;28;20421;-59
2022/09/08 00:54:15;;;;;;;3.63;2.03;;;16.50;99.90;;;;;;5026486;28;20438;-55
2022/09/08 00:56:41;;;;;;;2.10;1.93;;;16.50;99.90;;;;;;5030053;28;20438;-55
2022/09/08 00:59:08;;;;;;;2.27;1.70;;;16.50;99.90;;;;;;5029083;28;20528;-55
2022/09/08 01:01:35;;;;;;;2.27;1.70;;;16.50;99.90;;;;;;5028608;28;20442;-59
2022/09/08 01:04:03;;;;;;;7.30;1.80;;;16.50;99.90;;;;;;5027039;28;20514;-56
2022/09/08 01:14:59;;;;;;;7.17;1.97;;;16.40;99.90;;;;;;5024019;28;20461;-58
2022/09/08 01:17:30;;;;;;;2.13;1.93;;;16.40;99.90;;;;;;5016522;28;20494;-58
2022/09/08 01:19:58;;;;;;;3.97;1.80;;;16.40;99.90;;;;;;5026551;28;20229;-57
2022/09/08 01:22:35;;;;;;;3.53;2.23;;;16.40;99.90;;;;;;5025100;28;20927;-57
2022/09/08 01:25:22;;;;;;;3.00;2.00;;;16.30;99.90;;;;;;5027441;28;20450;-58
2022/09/08 01:27:50;;;;;;;1.90;1.70;;;16.30;99.90;;;;;;5027672;28;20442;-58
2022/09/08 01:30:16;;;;;;;3.00;2.00;;;16.30;99.90;;;;;;5028805;28;20868;-57
2022/09/08 01:32:43;;;;;;;2.73;1.90;;;16.30;99.90;;;;;;5027402;28;20438;-58
2022/09/08 01:35:10;;;;;;;2.13;1.90;;;16.30;99.90;;;;;;5025787;28;20552;-59
2022/09/08 01:37:36;;;;;;;4.23;2.23;;;16.30;99.90;;;;;;5026992;28;20997;-57
2022/09/08 01:40:03;;;;;;;4.30;2.20;;;16.30;99.90;;;;;;5026803;28;20480;-58
2022/09/08 01:42:29;;;;;;;3.30;2.50;;;16.30;99.90;;;;;;5028688;28;20184;-60
2022/09/08 01:44:56;;;;;;;3.00;2.10;;;16.30;99.90;;;;;;5026208;28;20569;-58
2022/09/08 01:47:21;;;;;;;4.43;2.17;;;16.30;99.90;;;;;;5022125;28;20986;-58
2022/09/08 01:49:47;;;;;;;3.33;2.00;;;16.30;99.90;;;;;;5029344;28;20200;-54
2022/09/08 01:52:13;;;;;;;3.20;1.80;;;16.20;99.90;;;;;;5028483;28;20299;-57
2022/09/08 01:54:39;;;;;;;3.70;2.27;;;16.30;99.90;;;;;;5025767;28;20261;-55
2022/09/08 01:57:04;;;;;;;2.27;1.73;;;16.30;99.90;;;;;;5029468;28;20900;-56
2022/09/08 01:59:30;;;;;;;3.77;1.63;;;16.20;99.90;;;;;;5027148;28;20183;-56
2022/09/08 02:01:56;;;;;;;1.80;1.50;;;16.20;99.90;;;;;;5023494;28;20180;-57
2022/09/08 02:04:21;;;;;;;6.60;2.30;;;16.30;99.90;;;;;;5023218;28;20180;-55
2022/09/08 02:06:47;;;;;;;2.70;1.83;;;16.20;99.90;;;;;;5061577;22;20760;-61
2022/09/08 02:09:13;;;;;;;6.60;1.73;;;16.30;99.90;;;;;;5066759;28;20182;-61
2022/09/08 02:11:39;;;;;;;3.67;1.80;;;16.20;99.90;;;;;;5070105;28;20171;-61
2022/09/08 02:14:05;;;;;;;2.30;1.90;;;16.30;99.90;;;;;;5061831;28;20425;-61
2022/09/08 02:16:31;;;;;;;2.87;2.07;;;16.20;99.90;;;;;;5069614;28;20186;-62
2022/09/08 02:18:56;;;;;;;2.40;2.00;;;16.20;99.90;;;;;;5066267;28;20427;-61
2022/09/08 02:21:27;;;;;;;2.83;1.70;;;16.20;99.90;;;;;;5059964;28;20429;-62
2022/09/08 02:23:54;;;;;;;3.23;1.80;;;16.20;99.90;;;;;;5059886;28;20705;-61
2022/09/08 02:26:22;;;;;;;2.60;1.80;;;16.20;99.90;;;;;;5063156;28;20429;-61
2022/09/08 02:28:51;;;;;;;6.07;2.10;;;16.20;99.90;;;;;;5063995;28;20974;-61
2022/09/08 02:31:17;;;;;;;3.23;2.07;;;16.20;99.90;;;;;;5047862;28;20510;-61
2022/09/08 02:33:43;;;;;;;3.60;1.63;;;16.20;99.90;;;;;;5063501;28;20448;-60
2022/09/08 02:36:09;;;;;;;4.00;1.80;;;16.20;99.90;;;;;;5060938;28;20933;-59
2022/09/08 02:38:35;;;;;;;2.10;1.90;;;16.20;99.90;;;;;;5063245;28;20437;-61
2022/09/08 02:41:01;;;;;;;3.80;2.00;;;16.20;99.90;;;;;;5063155;28;20404;-61
2022/09/08 02:43:29;;;;;;;2.13;1.70;;;16.10;99.90;;;;;;5066197;28;20328;-60
2022/09/08 02:45:54;;;;;;;6.53;2.20;;;16.20;99.90;;;;;;5062368;28;20175;-60
2022/09/08 02:48:20;;;;;;;5.43;1.87;;;16.20;99.90;;;;;;5065927;28;20440;-61
2022/09/08 02:50:46;;;;;;;4.03;1.83;;;16.10;99.90;;;;;;5068889;28;20198;-61
2022/09/08 02:53:11;;;;;;;2.50;1.93;;;16.10;99.90;;;;;;5065735;28;20584;-61
2022/09/08 02:55:39;;;;;;;2.40;1.70;;;16.10;99.90;;;;;;5066919;28;20171;-60
2022/09/08 02:58:07;;;;;;;1.53;1.40;;;16.10;99.90;;;;;;5066254;28;20666;-61
2022/09/08 03:00:33;;;;;;;3.77;1.77;;;16.10;99.90;;;;;;5059835;28;20446;-60
2022/09/08 03:02:59;;;;;;;4.90;2.20;;;16.10;99.90;;;;;;5066843;28;20941;-60
2022/09/08 03:05:25;;;;;;;2.60;1.60;;;16.10;99.90;;;;;;5067208;28;20458;-61
2022/09/08 03:07:51;;;;;;;2.73;1.73;;;16.10;99.90;;;;;;5071438;28;20579;-60
2022/09/08 03:10:20;;;;;;;2.70;1.60;;;16.10;99.90;;;;;;5069888;28;20196;-61
2022/09/08 03:12:46;;;;;;;1.90;1.70;;;16.00;99.90;;;;;;5050543;28;20499;-62
2022/09/08 03:15:12;;;;;;;1.40;1.30;;;16.00;99.90;;;;;;5067788;28;20924;-60
2022/09/08 03:17:38;;;;;;;1.97;1.30;;;16.00;99.90;;;;;;5069412;28;20273;-60
2022/09/08 03:20:03;;;;;;;1.33;1.23;;;16.00;99.90;;;;;;5069966;28;20880;-60
2022/09/08 03:22:29;;;;;;;1.10;1.00;;;16.00;99.90;;;;;;5061180;28;20750;-61
2022/09/08 03:24:55;;;;;;;2.67;1.63;;;16.00;99.90;;;;;;5067195;28;20251;-60
2022/09/08 03:27:20;;;;;;;2.73;1.40;;;16.00;99.90;;;;;;5064519;28;20221;-60
2022/09/08 03:29:46;;;;;;;3.23;1.10;;;15.90;99.90;;;;;;5066560;28;20217;-61
2022/09/08 03:32:11;;;;;;;3.13;1.20;;;15.90;99.90;;;;;;5068248;28;20556;-60
2022/09/08 03:34:37;;;;;;;1.20;1.10;;;15.90;99.90;;;;;;5068752;28;20254;-60
2022/09/08 03:37:03;;;;;;;2.10;1.30;;;15.80;99.90;;;;;;5063224;28;20187;-60
2022/09/08 03:39:28;;;;;;;3.13;1.40;;;15.80;99.90;;;;;;5068358;28;20549;-61
2022/09/08 03:41:54;;;;;;;1.50;1.40;;;15.80;99.90;;;;;;5071308;28;20175;-60
2022/09/08 03:44:20;;;;;;;2.43;1.17;;;15.80;99.90;;;;;;5064633;28;20178;-61
2022/09/08 03:46:46;;;;;;;3.53;1.43;;;15.70;99.90;;;;;;5064678;28;20689;-59
2022/09/08 03:49:12;;;;;;;1.00;1.00;;;15.70;99.90;;;;;;5067911;28;20433;-62
2022/09/08 03:51:37;;;;;;;2.20;1.40;;;15.70;99.90;;;;;;5067302;28;20226;-60
2022/09/08 03:56:51;;;;;;;2.20;1.40;;;15.70;99.90;;;;;;5064871;28;20255;-61
2022/09/08 03:59:16;;;;;;;5.90;1.40;;;15.70;99.90;;;;;;5066312;28;20944;-61
2022/09/08 04:01:42;;;;;;;2.97;1.30;;;15.70;99.90;;;;;;5059118;28;20413;-60
2022/09/08 04:04:08;;;;;;;4.33;1.67;;;15.70;99.90;;;;;;5063432;28;20539;-60
2022/09/08 04:06:34;;;;;;;1.83;1.40;;;15.70;99.90;;;;;;5036004;28;20683;-60
2022/09/08 04:09:00;;;;;;;2.30;1.37;;;15.70;99.90;;;;;;5056929;28;20194;-60
2022/09/08 04:11:25;;;;;;;3.00;1.13;;;15.70;99.90;;;;;;5058507;28;20204;-59
2022/09/08 04:13:51;;;;;;;4.70;1.50;;;15.70;99.90;;;;;;5061268;28;20467;-60
2022/09/08 04:16:18;;;;;;;2.07;1.10;;;15.70;99.90;;;;;;5056885;28;20295;-59
2022/09/08 04:18:44;;;;;;;17.00;8.77;;;15.70;99.90;;;;;;5043621;28;20171;-59
2022/09/08 04:21:10;;;;;;;3.37;1.50;;;15.60;99.90;;;;;;5066174;28;20424;-60
2022/09/08 04:23:38;;;;;;;3.13;1.37;;;15.60;99.90;;;;;;5061320;28;20539;-58
2022/09/08 04:26:12;;;;;;;2.03;1.40;;;15.60;99.90;;;;;;5061170;28;20511;-60
2022/09/08 04:28:39;;;;;;;1.67;1.40;;;15.60;99.90;;;;;;5056890;28;20436;-60
2022/09/08 04:31:06;;;;;;;4.57;1.60;;;15.60;99.90;;;;;;5059565;28;20449;-61
2022/09/08 04:33:32;;;;;;;6.37;2.10;;;15.60;99.90;;;;;;5059611;28;20428;-61
2022/09/08 04:35:57;;;;;;;1.87;1.40;;;15.60;99.90;;;;;;5062223;28;20431;-61
2022/09/08 04:38:23;;;;;;;1.90;1.30;;;15.70;99.90;;;;;;5059471;28;20186;-61
2022/09/08 04:40:49;;;;;;;2.17;1.90;;;15.70;99.90;;;;;;5061975;28;20174;-61
2022/09/08 04:43:14;;;;;;;3.20;1.50;;;15.70;99.90;;;;;;5066376;28;20183;-61
2022/09/08 04:45:40;;;;;;;2.30;1.60;;;15.70;99.90;;;;;;5058628;28;20264;-60
2022/09/08 04:48:06;;;;;;;1.93;1.50;;;15.70;99.90;;;;;;5040729;28;20632;-61
2022/09/08 04:50:31;;;;;;;1.40;1.30;;;15.70;99.90;;;;;;5057014;28;20667;-61
2022/09/08 04:52:57;;;;;;;4.37;1.30;;;15.70;99.90;;;;;;5060463;28;20185;-60
2022/09/08 04:55:23;;;;;;;2.10;1.33;;;15.70;99.90;;;;;;5052528;28;20236;-61
2022/09/08 04:57:48;;;;;;;1.20;1.10;;;15.70;99.90;;;;;;5060501;28;20761;-61
2022/09/08 05:00:15;;;;;;;1.93;1.20;;;15.70;99.90;;;;;;5049901;28;20536;-61
2022/09/08 05:02:44;;;;;;;2.00;1.33;;;15.70;99.90;;;;;;5067565;28;20212;-61
2022/09/08 05:05:09;;;;;;;4.43;1.47;;;15.70;99.90;;;;;;5068144;28;20421;-61
2022/09/08 05:07:35;;;;;;;1.57;1.47;;;15.70;99.90;;;;;;5069457;28;20460;-60
2022/09/08 05:10:01;;;;;;;1.83;1.30;;;15.70;99.90;;;;;;5055894;28;20248;-61
2022/09/08 05:12:27;;;;;;;2.20;1.50;;;15.70;99.90;;;;;;5047880;28;20181;-61
2022/09/08 05:14:52;;;;;;;2.57;1.20;;;15.70;99.90;;;;;;5068854;28;20732;-61
2022/09/08 05:17:18;;;;;;;2.50;1.27;;;15.70;99.90;;;;;;5061379;28;20449;-62
2022/09/08 05:19:44;;;;;;;1.50;1.40;;;15.70;99.90;;;;;;5067246;28;20189;-61
2022/09/08 05:22:09;;;;;;;1.97;1.40;;;15.70;99.90;;;;;;5062815;28;20220;-61
2022/09/08 05:24:35;;;;;;;1.47;1.30;;;15.70;99.90;;;;;;5070063;28;20272;-60
2022/09/08 05:27:00;;;;;;;1.53;1.30;;;15.70;99.90;;;;;;5069917;28;20202;-61
2022/09/08 05:29:26;;;;;;;1.97;1.17;;;15.70;99.90;;;;;;5062481;28;20187;-60
2022/09/08 05:31:52;;;;;;;2.30;1.43;;;15.60;99.90;;;;;;5062244;28;20211;-60
2022/09/08 05:34:17;;;;;;;1.60;1.40;;;15.60;99.90;;;;;;5068408;28;20189;-61
2022/09/08 05:36:43;;;;;;;2.63;1.40;;;15.60;99.90;;;;;;5064989;28;20194;-63
2022/09/08 05:39:09;;;;;;;1.67;1.53;;;15.60;99.90;;;;;;5068946;28;20675;-61
2022/09/08 05:41:35;;;;;;;1.57;1.47;;;15.60;99.90;;;;;;5069066;28;20182;-61
2022/09/08 05:44:01;;;;;;;2.03;1.83;;;15.50;99.90;;;;;;5054078;28;20433;-63
2022/09/08 05:46:28;;;;;;;3.70;2.00;;;15.50;99.90;;;;;;5068090;28;20405;-61
2022/09/08 05:48:57;;;;;;;2.00;1.33;;;15.50;99.90;;;;;;5069408;28;20416;-61
2022/09/08 05:51:23;;;;;;;3.03;1.27;;;15.50;99.90;;;;;;5066233;28;20464;-61
2022/09/08 05:53:49;;;;;;;3.23;1.30;;;15.50;99.90;;;;;;5057553;28;20482;-65
2022/09/08 05:56:18;;;;;;;3.53;1.57;;;15.50;99.90;;;;;;5064800;28;20508;-61
2022/09/08 05:58:52;;;;;;;2.43;1.20;;;15.50;99.90;;;;;;5080146;28;20170;-62
2022/09/08 06:01:19;;;;;;;1.83;1.73;;;15.50;99.90;;;;;;5065324;28;20428;-62
2022/09/08 06:03:44;;;;;;;1.70;1.43;;;15.50;99.90;;;;;;5068369;28;20856;-61
2022/09/08 06:06:11;;;;;;;2.10;1.40;;;15.50;99.90;;;;;;5058493;28;20554;-62
2022/09/08 06:08:38;;;;;;;1.43;1.33;;;15.50;99.90;;;;;;5051055;28;20805;-60
2022/09/08 06:11:05;;;;;;;1.73;1.13;;;15.50;99.90;;;;;;5059919;28;20484;-60
2022/09/08 06:13:32;;;;;;;2.37;1.57;;;15.50;99.90;;;;;;5057245;28;20425;-62
2022/09/08 06:16:03;;;;;;;1.77;1.67;;;15.50;99.90;;;;;;5063402;28;20440;-62
2022/09/08 06:18:33;;;;;;;1.90;1.70;;;15.50;99.90;;;;;;5060065;28;20456;-60
2022/09/08 06:21:03;;;;;;;1.40;1.30;;;15.50;99.90;;;;;;5061018;28;20429;-61
2022/09/08 06:23:28;;;;;;;1.97;1.33;;;15.50;99.90;;;;;;5067472;28;20404;-60
2022/09/08 06:25:55;;;;;;;1.20;1.10;;;15.50;99.90;;;;;;5066067;28;20436;-60
2022/09/08 06:28:32;;;;;;;1.77;1.60;;;15.50;99.90;;;;;;5060737;28;20202;-60
2022/09/08 06:30:59;;;;;;;2.70;1.50;;;15.50;99.90;;;;;;5066483;28;20459;-61
2022/09/08 06:33:37;;;;;;;3.13;1.60;;;15.60;99.90;;;;;;5067514;28;20437;-61
2022/09/08 06:36:13;;;;;;;1.50;1.40;;;15.60;99.90;;;;;;5058774;28;20424;-63
2022/09/08 06:38:46;;;;;;;1.73;1.57;;;15.60;99.90;;;;;;5066719;28;20429;-60
2022/09/08 06:41:32;;;;;;;1.80;1.60;;;15.60;99.90;;;;;;5060270;28;20441;-61
2022/09/08 06:44:22;;;;;;;1.63;1.53;;;15.60;99.90;;;;;;5052886;28;20436;-60
2022/09/08 06:46:51;;;;;;;2.50;1.30;;;15.60;99.90;;;;;;5066545;28;20513;-61
2022/09/08 06:49:16;;;;;;;1.50;1.40;;;15.60;99.90;;;;;;5060827;28;20433;-61
2022/09/08 06:52:06;;;;;;;2.00;1.50;;;15.60;99.90;;;;;;5067588;28;20819;-60
2022/09/08 06:55:05;;;;;;;5.63;2.10;;;15.50;99.90;;;;;;5063649;28;20201;-60
2022/09/08 06:57:51;;;;;;;2.07;1.30;;;15.50;99.90;;;;;;5049531;28;20948;-60
2022/09/08 07:00:23;;;;;;;1.30;1.20;;;15.50;99.90;;;;;;5066922;28;20486;-61
2022/09/08 07:03:01;;;;;;;1.87;1.40;;;15.50;99.90;;;;;;5061009;28;20821;-62
2022/09/08 07:05:45;;;;;;;1.33;1.27;;;15.50;99.90;;;;;;5064052;28;20461;-61
2022/09/08 07:08:33;;;;;;;4.27;1.47;;;15.50;99.90;;;;;;5065969;28;20464;-60
2022/09/08 07:11:20;;;;;;;3.60;1.47;;;15.50;99.90;;;;;;5065677;28;20484;-60
2022/09/08 07:13:55;;;;;;;1.87;1.70;;;15.60;99.90;;;;;;5060328;28;20453;-61
2022/09/08 07:16:37;;;;;;;3.97;1.87;;;15.80;99.90;;;;;;5061196;28;20436;-60
2022/09/08 07:19:16;;;;;;;1.80;1.40;;;15.90;99.90;;;;;;5047421;28;20457;-60
2022/09/08 07:21:53;;;;;;;2.70;1.40;;;16.00;99.90;;;;;;5063898;28;20459;-61
2022/09/08 07:24:23;;;;;;;1.37;1.27;;;16.00;99.90;;;;;;5063398;28;20436;-60
2022/09/08 07:26:57;;;;;;;4.83;1.40;;;16.00;99.90;;;;;;5068208;28;20554;-60
2022/09/08 07:29:31;;;;;;;1.53;1.43;;;16.00;99.90;;;;;;5058934;28;20952;-61
2022/09/08 07:31:58;;;;;;;2.07;1.37;;;16.00;99.90;;;;;;5062500;28;20440;-64
2022/09/08 07:34:26;;;;;;;4.93;1.53;;;16.00;99.90;;;;;;5064297;28;20451;-60
2022/09/08 07:37:04;;;;;;;1.53;1.43;;;16.00;99.90;;;;;;5060063;28;20535;-61
2022/09/08 07:39:47;;;;;;;2.43;1.43;;;16.00;99.90;;;;;;5058339;28;20453;-60
2022/09/08 07:42:16;;;;;;;6.27;1.60;;;16.00;99.90;;;;;;5065016;28;20798;-60
2022/09/08 07:44:42;;;;;;;3.23;1.50;;;16.00;99.90;;;;;;5065776;28;20523;-61
2022/09/08 07:47:14;;;;;;;2.17;1.60;;;16.00;99.90;;;;;;5063709;28;20505;-60
2022/09/08 07:49:58;;;;;;;2.13;1.50;;;16.10;99.90;;;;;;5065376;28;20500;-60
2022/09/08 07:52:41;;;;;;;1.63;1.30;;;16.10;99.90;;;;;;5068350;28;20433;-60
2022/09/08 07:55:17;;;;;;;4.50;2.17;;;16.20;99.90;;;;;;5069448;28;20436;-62
2022/09/08 07:57:50;;;;;;;1.93;1.80;;;16.30;99.90;;;;;;5064755;28;20443;-60
2022/09/08 08:00:56;;;;;;;1.93;1.70;;;16.40;99.90;;;;;;5063611;28;20444;-61
2022/09/08 08:03:40;;;;;;;4.03;2.00;;;16.40;99.90;;;;;;5026647;28;20428;-60
2022/09/08 08:06:15;;;;;;;1.50;1.40;;;16.50;99.90;;;;;;5065586;28;20444;-60
2022/09/08 08:09:04;;;;;;;2.00;1.63;;;16.50;99.90;;;;;;5064549;28;20503;-60
2022/09/08 08:11:48;;;;;;;3.03;1.63;;;16.50;99.90;;;;;;5059677;28;20478;-60
2022/09/08 08:14:26;;;;;;;2.80;1.70;;;16.50;99.90;;;;;;5069534;28;20931;-60
2022/09/08 08:17:01;;;;;;;2.40;1.63;;;16.50;99.90;;;;;;5060896;28;20453;-60
2022/09/08 08:19:52;;;;;;;3.23;1.87;;;16.60;99.90;;;;;;5053995;28;20438;-60
2022/09/08 08:23:05;;;;;;;2.33;1.50;;;16.70;99.90;;;;;;5064963;28;20448;-60
2022/09/08 08:25:53;;;;;;;2.70;1.87;;;16.80;99.90;;;;;;5060417;28;20462;-61
2022/09/08 08:28:21;;;;;;;2.97;2.37;;;16.80;99.90;;;;;;5063181;28;20448;-60
2022/09/08 08:30:58;;;;;;;3.10;2.20;;;16.90;99.90;;;;;;5069289;28;20456;-59
2022/09/08 08:33:33;;;;;;;2.50;2.00;;;17.00;99.90;;;;;;5064193;28;20493;-60
2022/09/08 08:36:06;;;;;;;3.83;1.93;;;17.10;99.90;;;;;;5063367;28;20527;-61
2022/09/08 08:38:38;;;;;;;4.17;2.60;;;17.20;99.90;;;;;;5070795;28;20547;-60
2022/09/08 08:41:46;;;;;;;2.40;1.87;;;17.10;99.90;;;;;;5070657;28;20409;-60
2022/09/08 08:44:46;;;;;;;4.57;2.17;;;17.10;99.90;;;;;;5043562;28;21325;-60
2022/09/08 08:47:45;;;;;;;2.10;1.90;;;17.10;99.90;;;;;;5067933;28;20505;-60
2022/09/08 08:50:46;;;;;;;3.00;2.20;;;17.00;99.90;;;;;;5069074;28;20456;-60
2022/09/08 08:53:45;;;;;;;1.73;1.47;;;17.00;99.90;;;;;;5047024;28;20432;-61
2022/09/08 08:56:24;;;;;;;4.23;2.17;;;16.90;99.90;;;;;;5047166;28;20881;-60
2022/09/08 08:59:25;;;;;;;5.90;2.20;;;16.90;99.90;;;;;;5069549;28;20405;-60
2022/09/08 09:02:15;;;;;;;2.30;1.73;;;17.00;99.90;;;;;;5049373;28;20432;-60
2022/09/08 09:04:59;;;;;;;5.40;2.70;;;17.30;99.90;;;;;;5071435;28;20430;-60
2022/09/08 09:07:40;;;;;;;4.00;1.90;;;17.50;99.90;;;;;;5073509;28;20459;-61
2022/09/08 09:10:22;;;;;;;1.60;1.50;;;17.60;99.90;;;;;;5064458;28;20839;-60
2022/09/08 09:13:22;;;;;;;7.57;1.93;;;17.70;99.90;;;;;;5067326;28;20759;-61
2022/09/08 09:16:03;;;;;;;2.33;1.73;;;17.70;99.90;;;;;;5066182;28;20424;-61
2022/09/08 09:18:59;;;;;;;2.30;1.60;;;17.70;99.90;;;;;;5054181;28;20444;-62
2022/09/08 09:21:51;;;;;;;2.83;1.60;;;17.70;99.90;;;;;;5069860;28;20446;-61
2022/09/08 09:24:50;;;;;;;10.23;1.47;;;17.60;99.90;;;;;;5068254;28;20415;-60
2022/09/08 09:27:34;;;;;;;3.40;1.50;;;17.60;99.90;;;;;;5059760;28;20861;-61
2022/09/08 09:30:44;;;;;;;1.87;1.40;;;17.50;99.90;;;;;;5064093;28;20456;-61
2022/09/08 09:33:30;;;;;;;2.10;1.73;;;17.60;99.90;;;;;;5047720;28;20414;-60
2022/09/08 09:36:20;;;;;;;1.60;1.50;;;17.60;99.90;;;;;;5066765;28;20425;-61
2022/09/08 09:38:52;;;;;;;2.27;1.60;;;17.80;99.90;;;;;;5063630;28;20418;-61
2022/09/08 09:41:28;;;;;;;1.50;1.37;;;17.90;99.90;;;;;;5059193;28;20421;-61
2022/09/08 09:44:31;;;;;;;2.70;1.20;;;18.10;99.90;;;;;;5053188;28;20455;-60
2022/09/08 09:47:21;;;;;;;1.80;1.23;;;18.40;99.90;;;;;;5062515;28;20500;-60
2022/09/08 09:49:46;;;;;;;2.60;1.20;;;18.70;99.90;;;;;;5065980;28;20444;-60
2022/09/08 09:52:27;;;;;;;2.87;1.50;;;18.90;99.90;;;;;;5066401;28;20431;-60
2022/09/08 09:55:14;;;;;;;1.57;1.30;;;19.10;99.90;;;;;;5065135;28;20530;-61
2022/09/08 09:57:54;;;;;;;1.27;1.13;;;19.10;99.90;;;;;;5063944;28;20557;-60
2022/09/08 10:00:20;;;;;;;3.10;1.60;;;18.90;99.90;;;;;;5059885;28;20418;-61
2022/09/08 10:03:07;;;;;;;1.30;1.20;;;18.80;99.90;;;;;;5053800;28;20793;-61
2022/09/08 10:05:58;;;;;;;2.97;1.63;;;18.70;99.90;;;;;;5040685;28;20729;-61
2022/09/08 10:08:43;;;;;;;2.70;1.30;;;18.70;99.90;;;;;;5065172;28;20456;-62
2022/09/08 10:11:26;;;;;;;1.53;1.20;;;18.70;99.90;;;;;;5059762;28;20543;-62
2022/09/08 10:14:28;;;;;;;2.10;1.43;;;18.80;99.90;;;;;;5057994;28;20440;-61
2022/09/08 10:17:13;;;;;;;2.13;1.40;;;19.10;99.90;;;;;;5057324;28;20476;-60
2022/09/08 10:20:13;;;;;;;3.87;1.17;;;19.30;99.90;;;;;;5058721;28;20925;-61
2022/09/08 10:22:51;;;;;;;1.33;1.10;;;19.30;99.30;;;;;;5040801;28;20448;-62
2022/09/08 10:25:55;;;;;;;6.07;2.00;;;19.30;99.90;;;;;;5062484;28;20436;-60
2022/09/08 10:28:50;;;;;;;2.53;1.50;;;19.30;99.90;;;;;;5059635;28;20529;-62
2022/09/08 10:31:31;;;;;;;1.70;1.20;;;19.50;99.90;;;;;;5061333;28;20501;-62
2022/09/08 10:34:35;;;;;;;1.07;1.00;;;19.60;99.90;;;;;;5057900;28;20456;-63
2022/09/08 10:37:40;;;;;;;1.40;0.90;;;19.70;94.20;;;;;;5043788;28;21159;-62
2022/09/08 10:40:27;;;;;;;2.50;1.10;;;19.80;88.20;;;;;;5015307;28;20428;-61
2022/09/08 10:43:28;;;;;;;2.30;1.13;;;19.80;80.70;;;;;;5062556;28;20454;-60
2022/09/08 10:46:12;;;;;;;2.97;1.30;;;20.00;78.80;;;;;;5039095;28;20436;-57
2022/09/08 10:49:15;;;;;;;1.40;1.00;;;20.30;83.80;;;;;;5058073;28;20456;-59
2022/09/08 10:51:59;;;;;;;2.83;1.00;;;20.60;85.90;;;;;;5012861;28;20479;-58
2022/09/08 10:54:38;;;;;;;1.83;0.90;;;20.90;78.60;;;;;;5059883;28;20479;-59
2022/09/08 10:57:18;;;;;;;2.27;1.30;;;21.00;86.70;;;;;;5058701;28;20547;-60
2022/09/08 11:00:08;;;;;;;2.83;1.33;;;21.00;85.50;;;;;;5056920;28;20451;-59
2022/09/08 11:02:35;;;;;;;3.23;1.33;;;20.80;83.10;;;;;;5042449;28;20435;-60
2022/09/08 11:05:09;;;;;;;2.50;1.00;;;20.70;87.00;;;;;;5057642;28;20467;-60
2022/09/08 11:08:02;;;;;;;2.80;1.37;;;20.80;83.40;;;;;;5047720;28;20460;-60
2022/09/08 11:10:50;;;;;;;2.40;1.43;;;20.70;87.90;;;;;;5061571;28;20462;-60
2022/09/08 11:13:31;;;;;;;1.10;1.00;;;20.70;77.90;;;;;;5059285;28;20956;-61
2022/09/08 11:16:21;;;;;;;2.40;1.20;;;20.40;80.50;;;;;;5059439;28;20425;-60
2022/09/08 11:18:58;;;;;;;1.90;1.07;;;20.20;84.40;;;;;;5060747;28;20500;-60
2022/09/08 11:21:36;;;;;;;4.77;1.00;;;20.00;84.40;;;;;;5062308;28;20442;-60
2022/09/08 11:24:25;;;;;;;1.83;0.93;;;19.90;78.00;;;;;;5062768;28;20432;-59
2022/09/08 11:27:17;;;;;;;1.10;1.00;;;19.90;69.60;;;;;;5048326;28;20453;-59
2022/09/08 11:29:51;;;;;;;4.40;0.90;;;20.10;77.30;;;;;;5064285;28;20486;-60
2022/09/08 11:32:31;;;;;;;6.53;1.30;;;20.40;65.50;;;;;;5057654;28;20437;-61
2022/09/08 11:35:07;;;;;;;1.80;1.00;;;20.70;62.40;;;;;;5059052;28;20531;-59
2022/09/08 11:38:08;;;;;;;2.70;0.97;;;21.00;61.60;;;;;;5061838;28;20597;-60
2022/09/08 11:40:54;;;;;;;2.67;1.00;;;21.20;59.80;;;;;;5037959;28;20922;-61
2022/09/08 11:43:31;;;;;;;1.73;1.43;;;21.50;61.30;;;;;;5055030;28;20473;-60
2022/09/08 11:46:20;;;;;;;3.03;1.67;;;21.80;61.30;;;;;;5058625;28;20466;-60
2022/09/08 11:49:18;;;;;;;2.60;1.27;;;22.10;58.40;;;;;;5053177;28;20459;-60
2022/09/08 11:52:11;;;;;;;3.43;1.20;;;22.20;55.30;;;;;;5053260;28;21069;-59
2022/09/08 11:54:39;;;;;;;3.03;1.00;;;22.30;54.70;;;;;;5054937;28;20420;-61
2022/09/08 11:57:08;;;;;;;2.30;1.07;;;22.30;56.40;;;;;;5050717;28;20426;-61
2022/09/08 11:59:59;;;;;;;3.70;1.17;;;22.50;57.00;;;;;;5065639;28;20460;-60
2022/09/08 12:02:40;;;;;;;4.87;1.10;;;22.70;55.60;;;;;;5036651;28;20527;-60
2022/09/08 12:05:13;;;;;;;1.90;0.97;;;22.80;55.30;;;;;;5064345;28;20890;-61
2022/09/08 12:07:56;;;;;;;2.10;0.90;;;22.90;54.90;;;;;;5066765;28;20513;-62
2022/09/08 12:10:43;;;;;;;1.87;0.80;;;23.10;53.70;;;;;;5051720;28;20984;-60
2022/09/08 12:13:29;;;;;;;2.47;0.90;;;23.40;53.70;;;;;;5061875;28;20498;-61
2022/09/08 12:15:54;;;;;;;1.80;0.90;;;23.70;52.00;;;;;;5074294;28;21080;-60
2022/09/08 12:18:38;;;;;;;4.10;1.00;;;23.50;51.10;;;;;;5063443;28;20452;-61
2022/09/08 12:21:06;;;;;;;2.27;1.00;;;23.00;51.00;;;;;;5066952;28;20253;-61
2022/09/08 12:23:35;;;;;;;2.73;1.00;;;22.70;53.00;;;;;;5063684;28;20434;-61
2022/09/08 12:26:20;;;;;;;5.00;1.40;;;22.80;53.50;;;;;;5043872;28;20441;-60
2022/09/08 12:28:55;;;;;;;3.10;1.00;;;23.00;52.80;;;;;;5048876;28;20968;-61
2022/09/08 12:31:46;;;;;;;5.70;0.90;;;23.10;53.30;;;;;;5064119;28;20456;-61
2022/09/08 12:34:30;;;;;;;2.27;0.90;;;23.40;53.20;;;;;;5062858;28;20451;-62
2022/09/08 12:37:40;;;;;;;2.73;0.90;;;23.70;51.10;;;;;;5062424;28;20925;-61
2022/09/08 12:40:29;;;;;;;2.00;1.07;;;23.60;51.90;;;;;;5044224;28;20433;-61
2022/09/08 12:43:16;;;;;;;3.77;1.00;;;23.60;51.60;;;;;;5059888;28;20543;-60
2022/09/08 12:46:03;;;;;;;2.70;1.00;;;23.70;50.30;;;;;;5058032;28;20564;-61
2022/09/08 12:48:31;;;;;;;2.00;0.93;;;23.90;51.20;;;;;;5063485;28;20555;-61
2022/09/08 12:51:18;;;;;;;3.07;1.00;;;24.10;49.80;;;;;;5064584;28;20484;-61
2022/09/08 12:53:53;;;;;;;3.33;1.17;;;24.30;50.10;;;;;;5064667;28;20440;-61
2022/09/08 12:56:21;;;;;;;3.07;0.93;;;24.40;47.20;;;;;;5069423;28;20412;-61
2022/09/08 12:59:00;;;;;;;1.47;0.70;;;24.50;45.00;;;;;;5050057;28;20450;-62
2022/09/08 13:01:45;;;;;;;2.67;0.90;;;24.40;45.10;;;;;;5062339;28;20463;-61
2022/09/08 13:04:26;;;;;;;3.07;0.80;;;24.20;45.10;;;;;;5049691;28;20436;-61
2022/09/08 13:07:25;;;;;;;2.23;0.90;;;24.30;45.80;;;;;;5065423;28;20475;-61
2022/09/08 13:10:24;;;;;;;6.63;0.90;;;24.40;44.50;;;;;;5066573;28;20840;-62
2022/09/08 13:13:11;;;;;;;3.97;0.90;;;24.70;45.40;;;;;;5063131;28;20512;-62
2022/09/08 13:16:00;;;;;;;2.23;1.10;;;24.90;43.90;;;;;;5063139;28;20433;-62
2022/09/08 13:18:41;;;;;;;1.73;1.10;;;25.00;42.50;;;;;;5060022;28;20509;-60
2022/09/08 13:21:27;;;;;;;1.80;0.87;;;24.90;42.20;;;;;;5061774;28;20475;-59
2022/09/08 13:24:10;;;;;;;1.00;0.87;;;25.10;42.40;;;;;;5062452;28;20446;-61
2022/09/08 13:26:39;;;;;;;1.23;0.80;;;25.10;41.00;;;;;;5071517;28;20440;-60
2022/09/08 13:29:17;;;;;;;1.53;0.90;;;25.10;40.90;;;;;;5063972;28;20477;-61
2022/09/08 13:32:04;;;;;;;1.77;1.10;;;25.10;41.50;;;;;;5062354;28;20459;-61
2022/09/08 13:34:32;;;;;;;4.60;1.07;;;25.20;42.20;;;;;;5061349;28;20432;-61
2022/09/08 13:37:25;;;;;;;1.13;0.80;;;25.30;41.00;;;;;;5069247;28;20435;-60
2022/09/08 13:39:53;;;;;;;2.87;0.93;;;25.50;40.50;;;;;;5046901;28;20454;-61
2022/09/08 13:42:49;;;;;;;1.43;0.70;;;25.70;40.10;;;;;;5062524;28;20432;-60